createdAt,value
2023-05-13T00:01:50.143Z,64.49
2023-05-13T00:04:19.653Z,64.48
2023-05-13T00:06:47.770Z,64.67
2023-05-13T00:09:16.117Z,65.20
2023-05-13T00:11:44.602Z,65.23
2023-05-13T00:14:13.370Z,65.67
2023-05-13T00:16:41.567Z,65.75
2023-05-13T00:19:10.048Z,65.78
2023-05-13T00:21:39.018Z,66.11
2023-05-13T00:24:08.213Z,65.98
2023-05-13T00:26:36.207Z,65.91
2023-05-13T00:29:04.250Z,66.10
2023-05-13T00:31:32.413Z,65.91
2023-05-13T00:34:01.546Z,66.04
2023-05-13T00:36:29.938Z,65.04
2023-05-13T00:38:58.399Z,65.25
2023-05-13T00:41:26.832Z,66.29
2023-05-13T00:43:58.791Z,67.27
2023-05-13T00:46:32.127Z,67.06
2023-05-13T00:49:01.322Z,66.44
2023-05-13T00:51:29.368Z,66.95
2023-05-13T00:53:59.441Z,67.90
2023-05-13T00:56:27.597Z,68.85
2023-05-13T00:58:56.114Z,67.93
2023-05-13T01:01:43.782Z,67.91
2023-05-13T01:04:38.161Z,69.48
2023-05-13T01:07:25.722Z,69.31
2023-05-13T01:10:06.603Z,69.23
2023-05-13T01:12:41.479Z,69.93
2023-05-13T01:15:14.409Z,69.92
2023-05-13T01:17:47.982Z,69.71
2023-05-13T01:20:21.735Z,69.02
2023-05-13T01:22:50.768Z,71.22
2023-05-13T01:25:19.639Z,70.85
2023-05-13T01:27:48.478Z,71.17
2023-05-13T01:30:18.110Z,71.04
2023-05-13T01:32:47.092Z,70.93
2023-05-13T01:35:17.227Z,71.03
2023-05-13T01:37:48.993Z,71.11
2023-05-13T01:40:31.041Z,70.73
2023-05-13T01:43:03.869Z,71.66
2023-05-13T01:45:33.502Z,71.34
2023-05-13T01:48:02.311Z,71.06
2023-05-13T01:50:40.268Z,71.49
2023-05-13T01:53:09.286Z,71.32
2023-05-13T01:55:38.506Z,71.65
2023-05-13T01:58:06.796Z,72.13
2023-05-13T02:00:34.935Z,70.95
2023-05-13T02:03:03.374Z,70.83
2023-05-13T02:05:33.291Z,72.94
2023-05-13T02:08:02.591Z,73.49
2023-05-13T02:10:32.829Z,73.70
2023-05-13T02:13:02.056Z,73.67
2023-05-13T02:15:30.293Z,73.04
2023-05-13T02:17:58.406Z,72.93
2023-05-13T02:20:27.409Z,73.01
2023-05-13T02:22:56.083Z,72.80
2023-05-13T02:25:24.169Z,73.32
2023-05-13T02:27:52.789Z,73.73
2023-05-13T02:30:22.150Z,74.12
2023-05-13T02:32:50.416Z,73.73
2023-05-13T02:35:19.390Z,73.71
2023-05-13T02:37:47.659Z,73.95
2023-05-13T02:40:17.156Z,74.05
2023-05-13T02:42:46.869Z,73.91
2023-05-13T02:45:15.528Z,74.31
2023-05-13T02:47:45.079Z,74.29
2023-05-13T02:50:13.589Z,73.96
2023-05-13T02:52:42.523Z,74.58
2023-05-13T02:55:11.887Z,74.26
2023-05-13T02:57:40.349Z,74.75
2023-05-13T03:00:09.445Z,74.65
2023-05-13T03:02:38.089Z,74.51
2023-05-13T03:05:06.885Z,74.59
2023-05-13T03:07:35.419Z,75.52
2023-05-13T03:10:03.728Z,75.23
2023-05-13T03:12:32.054Z,74.80
2023-05-13T03:15:00.201Z,74.31
2023-05-13T03:17:30.985Z,75.40
2023-05-13T03:19:59.385Z,75.76
2023-05-13T03:22:27.680Z,75.43
2023-05-13T03:24:57.369Z,76.10
2023-05-13T03:27:27.207Z,76.37
2023-05-13T03:29:55.408Z,76.49
2023-05-13T03:32:30.711Z,76.45
2023-05-13T03:35:01.088Z,76.42
2023-05-13T03:37:30.191Z,76.55
2023-05-13T03:39:58.626Z,76.45
2023-05-13T03:42:26.874Z,76.35
2023-05-13T03:44:59.994Z,76.16
2023-05-13T03:47:28.367Z,76.01
2023-05-13T03:49:59.337Z,76.94
2023-05-13T03:52:27.669Z,76.23
2023-05-13T03:54:55.788Z,76.24
2023-05-13T03:57:24.320Z,76.28
2023-05-13T03:59:52.350Z,76.61
2023-05-13T04:02:45.658Z,77.02
2023-05-13T04:05:14.444Z,75.85
2023-05-13T04:07:42.660Z,75.89
2023-05-13T04:10:14.571Z,76.42
2023-05-13T04:12:43.626Z,76.21
2023-05-13T04:15:12.932Z,76.74
2023-05-13T04:17:41.944Z,77.07
2023-05-13T04:20:10.415Z,76.56
2023-05-13T04:22:38.411Z,76.55
2023-05-13T04:25:07.440Z,77.65
2023-05-13T04:27:36.285Z,77.07
2023-05-13T04:34:37.493Z,77.48
2023-05-13T04:37:05.988Z,77.38
2023-05-13T04:39:34.127Z,77.20
2023-05-13T04:42:02.502Z,77.00
2023-05-13T04:44:31.322Z,76.82
2023-05-13T04:46:59.829Z,77.04
2023-05-13T04:49:28.040Z,78.23
2023-05-13T04:51:57.491Z,80.02
2023-05-13T04:54:25.963Z,78.39
2023-05-13T04:56:54.044Z,77.99
2023-05-13T04:59:23.561Z,78.66
2023-05-13T05:01:51.652Z,80.61
2023-05-13T05:04:20.003Z,80.96
2023-05-13T05:06:48.815Z,77.86
2023-05-13T05:09:19.033Z,75.87
2023-05-13T05:11:50.746Z,66.52
2023-05-13T05:14:20.922Z,69.28
2023-05-13T05:16:50.943Z,66.78
2023-05-13T05:19:24.821Z,61.42
2023-05-13T05:21:54.732Z,58.69
2023-05-13T05:24:22.713Z,61.51
2023-05-13T05:26:50.780Z,59.53
2023-05-13T05:29:19.000Z,61.24
2023-05-13T05:31:47.611Z,58.86
2023-05-13T05:34:16.012Z,57.58
2023-05-13T05:36:44.719Z,57.25
2023-05-13T05:39:14.156Z,54.74
2023-05-13T05:41:42.236Z,53.52
2023-05-13T05:44:13.527Z,52.34
2023-05-13T05:46:42.171Z,51.49
2023-05-13T05:49:10.156Z,49.47
2023-05-13T05:51:39.060Z,50.17
2023-05-13T05:54:08.616Z,49.66
2023-05-13T05:56:37.997Z,49.51
2023-05-13T05:59:07.586Z,47.90
2023-05-13T06:01:37.031Z,48.58
2023-05-13T06:04:05.729Z,47.42
2023-05-13T06:06:33.987Z,47.50
2023-05-13T06:09:03.184Z,48.34
2023-05-13T06:11:31.128Z,46.11
2023-05-13T06:13:59.189Z,44.95
2023-05-13T06:16:28.402Z,46.05
2023-05-13T06:18:56.443Z,44.44
2023-05-13T06:21:25.219Z,42.42
2023-05-13T06:23:53.704Z,41.76
2023-05-13T06:26:22.648Z,39.96
2023-05-13T06:28:50.944Z,40.52
2023-05-13T06:31:19.022Z,39.37
2023-05-13T06:33:47.763Z,37.41
2023-05-13T06:36:15.847Z,38.88
2023-05-13T06:38:44.118Z,36.29
2023-05-13T06:41:12.816Z,37.81
2023-05-13T06:43:41.592Z,38.05
2023-05-13T06:46:16.949Z,37.38
2023-05-13T06:48:45.916Z,36.83
2023-05-13T06:51:13.959Z,32.93
2023-05-13T06:53:41.891Z,32.09
2023-05-13T06:56:09.839Z,32.71
2023-05-13T06:58:37.710Z,33.28
2023-05-13T07:01:05.854Z,32.55
2023-05-13T07:03:34.117Z,32.07
2023-05-13T07:06:02.080Z,29.66
2023-05-13T07:08:30.130Z,30.99
2023-05-13T07:10:58.049Z,30.02
2023-05-13T07:13:26.535Z,29.12
2023-05-13T07:15:54.940Z,29.09
2023-05-13T07:18:23.755Z,29.36
2023-05-13T07:20:52.609Z,28.63
2023-05-13T07:23:21.223Z,26.56
2023-05-13T07:25:51.543Z,26.20
2023-05-13T07:28:20.864Z,27.38
2023-05-13T07:30:48.834Z,28.37
2023-05-13T07:33:16.736Z,27.38
2023-05-13T07:35:45.126Z,28.32
2023-05-13T07:38:13.154Z,26.79
2023-05-13T07:40:41.888Z,27.07
2023-05-13T07:43:10.838Z,27.93
2023-05-13T07:45:39.367Z,27.00
2023-05-13T07:48:07.481Z,26.47
2023-05-13T07:50:35.488Z,27.57
2023-05-13T07:53:03.391Z,27.65
2023-05-13T07:55:31.493Z,26.99
2023-05-13T07:57:59.426Z,26.34
2023-05-13T08:00:27.439Z,25.69
2023-05-13T08:02:56.271Z,26.85
2023-05-13T08:05:24.585Z,25.31
2023-05-13T08:07:52.424Z,26.57
2023-05-13T08:10:20.477Z,26.62
2023-05-13T08:12:52.323Z,27.22
2023-05-13T08:15:20.336Z,27.16
2023-05-13T08:17:49.249Z,27.32
2023-05-13T08:20:17.095Z,27.58
2023-05-13T08:22:44.987Z,27.50
2023-05-13T08:25:13.134Z,27.34
2023-05-13T08:27:41.157Z,27.67
2023-05-13T08:30:09.355Z,28.17
2023-05-13T08:32:37.465Z,28.21
2023-05-13T08:35:05.695Z,27.78
2023-05-13T08:37:33.674Z,27.58
2023-05-13T08:40:01.725Z,27.63
2023-05-13T08:42:32.508Z,27.86
2023-05-13T08:45:04.137Z,27.98
2023-05-13T08:47:46.715Z,27.72
2023-05-13T08:50:14.894Z,27.24
2023-05-13T08:52:43.758Z,26.40
2023-05-13T08:55:12.740Z,26.52
2023-05-13T08:57:41.597Z,26.11
2023-05-13T09:00:11.539Z,25.77
2023-05-13T09:02:39.537Z,26.07
2023-05-13T09:05:09.378Z,26.30
2023-05-13T09:07:38.980Z,26.57
2023-05-13T09:10:07.665Z,26.41
2023-05-13T09:12:41.926Z,26.70
2023-05-13T09:15:11.221Z,26.89
2023-05-13T09:17:43.005Z,26.21
2023-05-13T09:20:13.258Z,26.54
2023-05-13T09:22:41.941Z,26.56
2023-05-13T09:25:12.043Z,26.57
2023-05-13T09:27:42.088Z,27.04
2023-05-13T09:30:10.926Z,26.83
2023-05-13T09:32:39.518Z,27.46
2023-05-13T09:35:17.550Z,27.69
2023-05-13T09:37:49.339Z,27.75
2023-05-13T09:40:18.041Z,28.15
2023-05-13T09:42:46.576Z,28.22
2023-05-13T09:45:16.167Z,28.03
2023-05-13T09:47:44.682Z,27.79
2023-05-13T09:50:13.783Z,27.90
2023-05-13T09:52:41.791Z,27.63
2023-05-13T09:55:10.040Z,27.70
2023-05-13T09:57:39.435Z,27.23
2023-05-13T10:00:12.819Z,27.23
2023-05-13T10:02:46.287Z,26.47
2023-05-13T10:05:14.756Z,26.97
2023-05-13T10:07:43.626Z,26.77
2023-05-13T10:10:12.036Z,27.43
2023-05-13T10:12:41.442Z,27.85
2023-05-13T10:15:10.392Z,28.01
2023-05-13T10:17:39.802Z,27.69
2023-05-13T10:20:08.145Z,26.77
2023-05-13T10:22:37.287Z,27.14
2023-05-13T10:25:05.567Z,27.65
2023-05-13T10:27:33.922Z,27.53
2023-05-13T10:30:03.892Z,27.83
2023-05-13T10:32:32.229Z,28.07
2023-05-13T10:35:20.279Z,27.91
2023-05-13T10:37:54.490Z,27.92
2023-05-13T10:40:29.562Z,28.15
2023-05-13T10:43:17.311Z,27.06
2023-05-13T10:45:56.238Z,26.87
2023-05-13T10:48:24.753Z,27.32
2023-05-13T10:50:57.332Z,26.87
2023-05-13T10:53:28.276Z,27.26
2023-05-13T10:55:56.900Z,27.21
2023-05-13T10:58:35.272Z,27.28
2023-05-13T11:04:56.412Z,27.39
2023-05-13T11:07:25.746Z,27.57
2023-05-13T11:09:56.155Z,27.52
2023-05-13T11:12:24.040Z,27.78
2023-05-13T11:14:55.959Z,28.04
2023-05-13T11:17:24.662Z,28.29
2023-05-13T11:19:53.383Z,28.19
2023-05-13T11:22:22.553Z,28.62
2023-05-13T11:25:11.154Z,28.29
2023-05-13T11:27:40.557Z,28.75
2023-05-13T11:30:21.155Z,28.56
2023-05-13T11:32:58.456Z,28.62
2023-05-13T11:35:28.282Z,28.84
2023-05-13T11:37:59.627Z,28.61
2023-05-13T11:40:32.199Z,27.47
2023-05-13T11:43:00.988Z,27.39
2023-05-13T11:45:29.451Z,27.79
2023-05-13T11:47:57.950Z,27.92
2023-05-13T11:50:30.508Z,28.53
2023-05-13T11:52:59.784Z,28.62
2023-05-13T11:55:28.966Z,28.55
2023-05-13T11:57:57.284Z,28.67
2023-05-13T12:00:26.407Z,28.67
2023-05-13T12:02:54.736Z,28.15
2023-05-13T12:05:26.487Z,27.36
2023-05-13T12:07:58.302Z,27.89
2023-05-13T12:10:26.455Z,27.20
2023-05-13T12:12:54.863Z,27.26
2023-05-13T12:15:23.428Z,27.47
2023-05-13T12:17:52.582Z,27.64
2023-05-13T12:20:21.604Z,27.95
2023-05-13T12:22:50.830Z,27.93
2023-05-13T12:25:36.926Z,27.96
2023-05-13T12:28:09.301Z,27.89
2023-05-13T12:30:38.075Z,28.71
2023-05-13T12:33:06.440Z,28.62
2023-05-13T12:35:34.852Z,28.84
2023-05-13T12:38:04.196Z,27.92
2023-05-13T12:40:32.659Z,28.32
2023-05-13T12:43:01.529Z,28.10
2023-05-13T12:45:30.759Z,27.74
2023-05-13T12:47:59.325Z,28.25
2023-05-13T12:50:27.386Z,28.59
2023-05-13T12:52:55.551Z,28.47
2023-05-13T12:55:24.314Z,28.93
2023-05-13T12:58:03.052Z,28.82
2023-05-13T13:00:31.161Z,27.96
2023-05-13T13:02:59.207Z,28.20
2023-05-13T13:05:27.374Z,28.94
2023-05-13T13:07:55.437Z,28.90
2023-05-13T13:10:23.300Z,28.72
2023-05-13T13:12:51.272Z,28.33
2023-05-13T13:15:19.488Z,27.78
2023-05-13T13:17:47.680Z,27.66
2023-05-13T13:20:15.595Z,27.04
2023-05-13T13:22:43.478Z,26.81
2023-05-13T13:25:11.871Z,27.09
2023-05-13T13:27:40.105Z,27.40
2023-05-13T13:30:08.526Z,27.31
2023-05-13T13:32:36.499Z,28.17
2023-05-13T13:35:05.740Z,27.74
2023-05-13T13:37:35.459Z,27.46
2023-05-13T13:40:05.046Z,27.95
2023-05-13T13:42:43.213Z,27.75
2023-05-13T13:45:13.705Z,28.66
2023-05-13T13:47:42.073Z,28.88
2023-05-13T13:50:10.504Z,28.60
2023-05-13T13:52:38.430Z,29.15
2023-05-13T13:55:06.745Z,29.22
2023-05-13T13:57:34.800Z,29.12
2023-05-13T14:00:02.849Z,28.56
2023-05-13T14:02:36.885Z,28.65
2023-05-13T14:05:05.051Z,28.88
2023-05-13T14:07:33.233Z,29.09
2023-05-13T14:10:01.601Z,29.14
2023-05-13T14:12:29.870Z,29.33
2023-05-13T14:14:58.387Z,29.09
2023-05-13T14:17:26.375Z,29.34
2023-05-13T14:19:55.689Z,29.95
2023-05-13T14:22:24.014Z,30.05
2023-05-13T14:24:52.714Z,30.04
2023-05-13T14:27:21.937Z,29.85
2023-05-13T14:29:50.189Z,29.76
2023-05-13T14:32:18.140Z,29.54
2023-05-13T14:34:46.368Z,29.48
2023-05-13T14:37:14.287Z,29.15
2023-05-13T14:39:42.459Z,29.09
2023-05-13T14:42:11.888Z,28.91
2023-05-13T14:44:41.603Z,29.02
2023-05-13T14:47:10.624Z,28.90
2023-05-13T14:49:39.277Z,29.38
2023-05-13T14:52:07.319Z,29.77
2023-05-13T14:54:36.930Z,29.50
2023-05-13T14:57:06.070Z,29.33
2023-05-13T14:59:34.456Z,29.82
2023-05-13T15:02:02.950Z,29.88
2023-05-13T15:04:30.986Z,30.20
2023-05-13T15:06:59.530Z,30.61
2023-05-13T15:09:27.656Z,30.53
2023-05-13T15:11:55.657Z,30.36
2023-05-13T15:14:26.108Z,30.18
2023-05-13T15:16:54.349Z,30.25
2023-05-13T15:19:22.701Z,29.90
2023-05-13T15:21:51.648Z,30.13
2023-05-13T15:24:19.803Z,29.76
2023-05-13T15:26:48.552Z,29.83
2023-05-13T15:29:16.942Z,30.09
2023-05-13T15:31:45.061Z,30.29
2023-05-13T15:34:13.040Z,30.02
2023-05-13T15:36:41.134Z,30.35
2023-05-13T15:39:11.289Z,30.39
2023-05-13T15:41:39.341Z,30.98
2023-05-13T15:44:07.477Z,30.99
2023-05-13T15:46:35.705Z,31.01
2023-05-13T15:49:03.841Z,30.98
2023-05-13T15:51:32.027Z,30.83
2023-05-13T15:54:03.000Z,30.86
2023-05-13T15:56:31.032Z,30.65
2023-05-13T15:58:59.080Z,30.63
2023-05-13T16:01:27.110Z,29.99
2023-05-13T16:03:55.037Z,29.89
2023-05-13T16:06:23.307Z,29.92
2023-05-13T16:08:51.244Z,30.31
2023-05-13T16:11:19.230Z,30.67
2023-05-13T16:13:47.306Z,30.25
2023-05-13T16:16:15.625Z,30.51
2023-05-13T16:18:43.633Z,30.47
2023-05-13T16:21:12.172Z,30.72
2023-05-13T16:23:40.389Z,30.86
2023-05-13T16:26:08.314Z,31.02
2023-05-13T16:28:36.223Z,31.32
2023-05-13T16:31:04.614Z,31.68
2023-05-13T16:33:33.878Z,32.63
2023-05-13T16:36:01.852Z,33.11
2023-05-13T16:38:30.496Z,32.94
2023-05-13T16:40:58.481Z,33.70
2023-05-13T16:43:26.622Z,33.74
2023-05-13T16:45:54.515Z,33.82
2023-05-13T16:48:23.618Z,34.14
2023-05-13T16:50:52.053Z,34.60
2023-05-13T16:53:22.348Z,35.17
2023-05-13T16:55:50.518Z,35.63
2023-05-13T16:58:18.666Z,35.73
2023-05-13T17:00:46.629Z,35.71
2023-05-13T17:03:15.069Z,35.53
2023-05-13T17:05:43.813Z,35.68
2023-05-13T17:08:11.701Z,36.00
2023-05-13T17:10:39.709Z,36.32
2023-05-13T17:13:07.659Z,36.20
2023-05-13T17:15:35.839Z,36.71
2023-05-13T17:18:03.834Z,36.81
2023-05-13T17:20:31.800Z,37.05
2023-05-13T17:22:59.759Z,37.23
2023-05-13T17:25:27.700Z,37.46
2023-05-13T17:27:55.541Z,37.63
2023-05-13T17:30:23.846Z,37.85
2023-05-13T17:32:52.007Z,37.71
2023-05-13T17:35:20.234Z,37.95
2023-05-13T17:37:48.352Z,38.33
2023-05-13T17:40:16.400Z,38.53
2023-05-13T17:42:44.511Z,39.04
2023-05-13T17:45:12.872Z,39.66
2023-05-13T17:47:44.090Z,39.57
2023-05-13T17:50:14.500Z,39.89
2023-05-13T17:52:42.567Z,37.27
2023-05-13T17:55:10.727Z,34.80
2023-05-13T17:57:39.073Z,35.20
2023-05-13T18:00:07.735Z,35.66
2023-05-13T18:02:36.536Z,36.01
2023-05-13T18:05:06.401Z,36.12
2023-05-13T18:07:34.583Z,36.93
2023-05-13T18:10:02.993Z,37.64
2023-05-13T18:12:31.151Z,38.14
2023-05-13T18:14:59.208Z,38.92
2023-05-13T18:17:27.797Z,39.48
2023-05-13T18:19:55.971Z,40.21
2023-05-13T18:22:24.048Z,40.69
2023-05-13T18:24:52.285Z,41.53
2023-05-13T18:27:21.713Z,41.58
2023-05-13T18:29:50.419Z,41.82
2023-05-13T18:32:18.453Z,40.98
2023-05-13T18:34:46.545Z,41.25
2023-05-13T18:37:15.262Z,40.88
2023-05-13T18:39:45.925Z,41.46
2023-05-13T18:42:13.906Z,42.05
2023-05-13T18:44:42.172Z,42.17
2023-05-13T18:47:11.477Z,42.30
2023-05-13T18:49:39.501Z,42.31
2023-05-13T18:52:07.537Z,42.37
2023-05-13T18:54:36.219Z,42.57
2023-05-13T18:57:04.608Z,42.85
2023-05-13T18:59:33.313Z,43.01
2023-05-13T19:04:38.726Z,43.55
2023-05-13T19:07:06.937Z,43.72
2023-05-13T19:09:35.994Z,43.99
2023-05-13T19:12:04.214Z,44.21
2023-05-13T19:14:32.900Z,44.57
2023-05-13T19:17:01.436Z,44.91
2023-05-13T19:19:29.434Z,44.97
2023-05-13T19:21:57.460Z,45.27
2023-05-13T19:24:25.492Z,45.65
2023-05-13T19:26:53.634Z,45.81
2023-05-13T19:29:22.668Z,45.97
2023-05-13T19:31:51.090Z,46.46
2023-05-13T19:34:19.266Z,46.53
2023-05-13T19:36:47.394Z,46.79
2023-05-13T19:39:15.573Z,47.14
2023-05-13T19:41:50.705Z,47.43
2023-05-13T19:44:18.776Z,47.70
2023-05-13T19:46:47.237Z,47.95
2023-05-13T19:49:15.836Z,48.17
2023-05-13T19:51:44.280Z,48.56
2023-05-13T19:54:13.666Z,48.78
2023-05-13T19:56:41.894Z,48.94
2023-05-13T19:59:11.401Z,49.26
2023-05-13T20:01:40.142Z,49.52
2023-05-13T20:04:09.168Z,49.75
2023-05-13T20:06:37.180Z,49.91
2023-05-13T20:09:06.599Z,50.30
2023-05-13T20:11:36.387Z,50.56
2023-05-13T20:14:04.645Z,50.69
2023-05-13T20:16:32.898Z,51.19
2023-05-13T20:19:00.988Z,50.63
2023-05-13T20:21:29.274Z,50.79
2023-05-13T20:23:57.406Z,51.81
2023-05-13T20:26:25.921Z,52.18
2023-05-13T20:28:54.050Z,52.22
2023-05-13T20:31:24.014Z,52.52
2023-05-13T20:33:52.181Z,52.34
2023-05-13T20:36:20.167Z,52.94
2023-05-13T20:39:13.964Z,52.64
2023-05-13T20:41:42.068Z,53.16
2023-05-13T20:44:12.663Z,53.05
2023-05-13T20:46:40.864Z,54.03
2023-05-13T20:49:09.191Z,53.47
2023-05-13T20:51:37.859Z,54.17
2023-05-13T20:54:08.991Z,54.70
2023-05-13T20:56:37.100Z,54.78
2023-05-13T20:59:05.989Z,55.15
2023-05-13T21:01:35.434Z,55.04
2023-05-13T21:04:06.135Z,55.51
2023-05-13T21:06:34.196Z,55.34
2023-05-13T21:09:02.181Z,55.91
2023-05-13T21:11:30.475Z,56.31
2023-05-13T21:13:58.644Z,56.86
2023-05-13T21:16:26.805Z,57.02
2023-05-13T21:18:54.831Z,57.03
2023-05-13T21:21:23.375Z,56.97
2023-05-13T21:23:51.418Z,57.36
2023-05-13T21:26:21.945Z,57.64
2023-05-13T21:28:50.029Z,58.00
2023-05-13T21:31:17.982Z,58.42
2023-05-13T21:33:46.367Z,58.27
2023-05-13T21:36:15.477Z,58.51
2023-05-13T21:38:43.453Z,58.36
2023-05-13T21:41:13.133Z,59.08
2023-05-13T21:43:42.334Z,60.02
2023-05-13T21:46:10.257Z,60.08
2023-05-13T21:48:40.457Z,59.92
2023-05-13T21:51:08.824Z,60.15
2023-05-13T21:53:38.203Z,60.39
2023-05-13T21:56:07.402Z,60.22
2023-05-13T21:58:36.574Z,60.51
2023-05-13T22:01:04.841Z,60.64
2023-05-13T22:03:32.870Z,61.02
2023-05-13T22:06:02.503Z,61.60
2023-05-13T22:08:30.538Z,61.41
2023-05-13T22:11:01.408Z,61.27
2023-05-13T22:13:29.510Z,61.66
2023-05-13T22:15:57.928Z,61.98
2023-05-13T22:18:26.133Z,61.93
2023-05-13T22:20:55.815Z,62.35
2023-05-13T22:23:24.186Z,61.97
2023-05-13T22:25:52.323Z,62.37
2023-05-13T22:28:22.717Z,62.78
2023-05-13T22:30:55.412Z,63.04
2023-05-13T22:33:24.714Z,62.88
2023-05-13T22:35:52.831Z,63.40
2023-05-13T22:38:20.845Z,63.52
2023-05-13T22:40:52.152Z,63.13
2023-05-13T22:43:20.413Z,63.64
2023-05-13T22:45:48.422Z,63.58
2023-05-13T22:48:18.416Z,64.15
2023-05-13T22:50:46.483Z,64.21
2023-05-13T22:53:14.783Z,64.17
2023-05-13T22:55:42.841Z,64.41
2023-05-13T22:58:12.048Z,64.48
2023-05-13T23:00:40.973Z,64.93
2023-05-13T23:03:09.044Z,64.80
2023-05-13T23:05:37.143Z,65.21
2023-05-13T23:08:05.830Z,65.01
2023-05-13T23:10:33.887Z,65.14
2023-05-13T23:13:05.929Z,65.47
2023-05-13T23:15:36.832Z,65.72
2023-05-13T23:18:05.915Z,65.82
2023-05-13T23:20:34.180Z,65.24
2023-05-13T23:23:02.384Z,65.87
2023-05-13T23:25:30.390Z,66.43
2023-05-13T23:27:58.436Z,66.67
2023-05-13T23:30:27.406Z,67.00
2023-05-13T23:32:55.476Z,67.20
2023-05-13T23:35:24.351Z,67.37
2023-05-13T23:37:53.058Z,67.24
2023-05-13T23:40:21.762Z,66.36
2023-05-13T23:42:50.020Z,67.89
2023-05-13T23:45:18.102Z,68.04
2023-05-13T23:47:46.291Z,68.24
2023-05-13T23:50:41.600Z,68.62
2023-05-13T23:53:09.858Z,69.06
2023-05-13T23:55:38.112Z,68.51
2023-05-13T23:58:06.316Z,68.78
